sensor_id;sensor_type;location;lat;lon;timestamp;temperature;humidity
37456;DHT22;23316;50.718;7.328;2023-05-19T00:00:57;14.40;44.00
37456;DHT22;23316;50.718;7.328;2023-05-19T00:03:25;14.40;44.10
37456;DHT22;23316;50.718;7.328;2023-05-19T00:05:53;14.40;44.20
37456;DHT22;23316;50.718;7.328;2023-05-19T00:08:22;14.30;44.20
37456;DHT22;23316;50.718;7.328;2023-05-19T00:10:50;14.30;44.20
37456;DHT22;23316;50.718;7.328;2023-05-19T00:13:18;14.30;44.20
37456;DHT22;23316;50.718;7.328;2023-05-19T00:15:46;14.30;44.20
37456;DHT22;23316;50.718;7.328;2023-05-19T00:18:15;14.30;44.30
37456;DHT22;23316;50.718;7.328;2023-05-19T00:20:43;14.30;44.30
37456;DHT22;23316;50.718;7.328;2023-05-19T00:23:10;14.20;44.30
37456;DHT22;23316;50.718;7.328;2023-05-19T00:25:37;14.20;44.30
37456;DHT22;23316;50.718;7.328;2023-05-19T00:28:04;14.20;44.30
37456;DHT22;23316;50.718;7.328;2023-05-19T00:30:32;14.10;44.20
37456;DHT22;23316;50.718;7.328;2023-05-19T00:32:59;14.10;44.30
37456;DHT22;23316;50.718;7.328;2023-05-19T00:35:27;14.10;44.40
37456;DHT22;23316;50.718;7.328;2023-05-19T00:37:55;14.00;44.40
37456;DHT22;23316;50.718;7.328;2023-05-19T00:40:23;14.00;44.40
37456;DHT22;23316;50.718;7.328;2023-05-19T00:42:50;14.00;44.50
37456;DHT22;23316;50.718;7.328;2023-05-19T00:45:18;14.00;44.50
37456;DHT22;23316;50.718;7.328;2023-05-19T00:47:45;14.00;44.50
37456;DHT22;23316;50.718;7.328;2023-05-19T00:50:14;13.90;44.60
37456;DHT22;23316;50.718;7.328;2023-05-19T00:52:43;13.90;44.70
37456;DHT22;23316;50.718;7.328;2023-05-19T00:55:10;13.90;44.80
37456;DHT22;23316;50.718;7.328;2023-05-19T00:57:38;13.80;44.70
37456;DHT22;23316;50.718;7.328;2023-05-19T01:00:07;13.80;44.80
37456;DHT22;23316;50.718;7.328;2023-05-19T01:02:35;13.80;44.80
37456;DHT22;23316;50.718;7.328;2023-05-19T01:05:03;13.80;44.80
37456;DHT22;23316;50.718;7.328;2023-05-19T01:07:31;13.70;44.80
37456;DHT22;23316;50.718;7.328;2023-05-19T01:10:00;13.70;44.90
37456;DHT22;23316;50.718;7.328;2023-05-19T01:12:28;13.70;45.10
37456;DHT22;23316;50.718;7.328;2023-05-19T01:14:56;13.70;45.20
37456;DHT22;23316;50.718;7.328;2023-05-19T01:17:29;13.70;45.20
37456;DHT22;23316;50.718;7.328;2023-05-19T01:20:05;13.60;45.50
37456;DHT22;23316;50.718;7.328;2023-05-19T01:22:48;13.60;45.30
37456;DHT22;23316;50.718;7.328;2023-05-19T01:25:43;13.60;45.30
37456;DHT22;23316;50.718;7.328;2023-05-19T01:28:30;13.50;45.20
37456;DHT22;23316;50.718;7.328;2023-05-19T01:31:00;13.50;45.20
37456;DHT22;23316;50.718;7.328;2023-05-19T01:33:29;13.50;45.10
37456;DHT22;23316;50.718;7.328;2023-05-19T01:35:59;13.40;45.10
37456;DHT22;23316;50.718;7.328;2023-05-19T01:38:29;13.40;45.20
37456;DHT22;23316;50.718;7.328;2023-05-19T01:40:57;13.40;45.30
37456;DHT22;23316;50.718;7.328;2023-05-19T01:43:25;13.40;45.40
37456;DHT22;23316;50.718;7.328;2023-05-19T01:45:54;13.30;45.40
37456;DHT22;23316;50.718;7.328;2023-05-19T01:48:25;13.30;45.40
37456;DHT22;23316;50.718;7.328;2023-05-19T01:50:52;13.30;45.50
37456;DHT22;23316;50.718;7.328;2023-05-19T01:53:22;13.30;45.50
37456;DHT22;23316;50.718;7.328;2023-05-19T01:55:53;13.30;45.60
37456;DHT22;23316;50.718;7.328;2023-05-19T01:58:30;13.20;45.60
37456;DHT22;23316;50.718;7.328;2023-05-19T02:01:06;13.20;45.70
37456;DHT22;23316;50.718;7.328;2023-05-19T02:03:47;13.20;45.70
37456;DHT22;23316;50.718;7.328;2023-05-19T02:06:21;13.20;45.80
37456;DHT22;23316;50.718;7.328;2023-05-19T02:08:56;13.20;45.80
37456;DHT22;23316;50.718;7.328;2023-05-19T02:11:33;13.10;45.70
37456;DHT22;23316;50.718;7.328;2023-05-19T02:24:11;13.00;46.00
37456;DHT22;23316;50.718;7.328;2023-05-19T02:26:38;13.00;46.00
37456;DHT22;23316;50.718;7.328;2023-05-19T02:29:05;13.00;46.10
37456;DHT22;23316;50.718;7.328;2023-05-19T02:31:32;12.90;46.00
37456;DHT22;23316;50.718;7.328;2023-05-19T02:33:59;12.90;46.10
37456;DHT22;23316;50.718;7.328;2023-05-19T02:36:27;12.90;46.10
37456;DHT22;23316;50.718;7.328;2023-05-19T02:38:54;12.90;46.20
37456;DHT22;23316;50.718;7.328;2023-05-19T02:41:23;12.90;46.40
37456;DHT22;23316;50.718;7.328;2023-05-19T02:43:50;12.80;46.40
37456;DHT22;23316;50.718;7.328;2023-05-19T02:46:18;12.80;46.40
37456;DHT22;23316;50.718;7.328;2023-05-19T02:48:45;12.80;46.60
37456;DHT22;23316;50.718;7.328;2023-05-19T02:51:12;12.70;46.50
37456;DHT22;23316;50.718;7.328;2023-05-19T02:53:39;12.70;46.50
37456;DHT22;23316;50.718;7.328;2023-05-19T02:56:06;12.70;46.60
37456;DHT22;23316;50.718;7.328;2023-05-19T02:58:35;12.70;46.60
37456;DHT22;23316;50.718;7.328;2023-05-19T03:01:02;12.70;46.70
37456;DHT22;23316;50.718;7.328;2023-05-19T03:03:29;12.70;46.70
37456;DHT22;23316;50.718;7.328;2023-05-19T03:05:57;12.60;46.80
37456;DHT22;23316;50.718;7.328;2023-05-19T03:08:25;12.60;46.80
37456;DHT22;23316;50.718;7.328;2023-05-19T03:10:52;12.60;46.80
37456;DHT22;23316;50.718;7.328;2023-05-19T03:13:19;12.60;46.80
37456;DHT22;23316;50.718;7.328;2023-05-19T03:15:47;12.60;46.80
37456;DHT22;23316;50.718;7.328;2023-05-19T03:18:15;12.60;47.00
37456;DHT22;23316;50.718;7.328;2023-05-19T03:20:43;12.60;47.20
37456;DHT22;23316;50.718;7.328;2023-05-19T03:23:10;12.60;47.30
37456;DHT22;23316;50.718;7.328;2023-05-19T03:25:37;12.60;47.40
37456;DHT22;23316;50.718;7.328;2023-05-19T03:28:04;12.50;47.40
37456;DHT22;23316;50.718;7.328;2023-05-19T03:30:32;12.50;47.40
37456;DHT22;23316;50.718;7.328;2023-05-19T03:33:00;12.50;47.50
37456;DHT22;23316;50.718;7.328;2023-05-19T03:35:27;12.50;47.50
37456;DHT22;23316;50.718;7.328;2023-05-19T03:37:55;12.50;47.50
37456;DHT22;23316;50.718;7.328;2023-05-19T03:40:22;12.40;47.50
37456;DHT22;23316;50.718;7.328;2023-05-19T03:42:49;12.40;47.60
37456;DHT22;23316;50.718;7.328;2023-05-19T03:45:16;12.40;47.60
37456;DHT22;23316;50.718;7.328;2023-05-19T03:47:44;12.40;47.60
37456;DHT22;23316;50.718;7.328;2023-05-19T03:50:13;12.40;47.60
37456;DHT22;23316;50.718;7.328;2023-05-19T03:52:41;12.30;47.60
37456;DHT22;23316;50.718;7.328;2023-05-19T03:55:10;12.40;47.60
37456;DHT22;23316;50.718;7.328;2023-05-19T03:57:37;12.30;47.60
37456;DHT22;23316;50.718;7.328;2023-05-19T04:00:05;12.30;47.60
37456;DHT22;23316;50.718;7.328;2023-05-19T04:02:33;12.30;47.70
37456;DHT22;23316;50.718;7.328;2023-05-19T04:05:00;12.20;47.70
37456;DHT22;23316;50.718;7.328;2023-05-19T04:07:31;12.30;47.80
37456;DHT22;23316;50.718;7.328;2023-05-19T04:09:58;12.30;47.80
37456;DHT22;23316;50.718;7.328;2023-05-19T04:12:25;12.20;47.80
37456;DHT22;23316;50.718;7.328;2023-05-19T04:14:53;12.20;47.80
37456;DHT22;23316;50.718;7.328;2023-05-19T04:17:20;12.20;47.80
37456;DHT22;23316;50.718;7.328;2023-05-19T04:19:51;12.20;47.90
37456;DHT22;23316;50.718;7.328;2023-05-19T04:22:18;12.20;47.90
37456;DHT22;23316;50.718;7.328;2023-05-19T04:24:48;12.10;48.00
37456;DHT22;23316;50.718;7.328;2023-05-19T04:27:16;12.20;48.10
37456;DHT22;23316;50.718;7.328;2023-05-19T04:29:43;12.10;48.00
37456;DHT22;23316;50.718;7.328;2023-05-19T04:32:13;12.10;48.20
37456;DHT22;23316;50.718;7.328;2023-05-19T04:34:42;12.10;48.30
37456;DHT22;23316;50.718;7.328;2023-05-19T04:37:11;12.10;48.40
37456;DHT22;23316;50.718;7.328;2023-05-19T04:39:39;12.20;48.50
37456;DHT22;23316;50.718;7.328;2023-05-19T04:42:09;12.20;48.70
37456;DHT22;23316;50.718;7.328;2023-05-19T04:44:36;12.20;48.80
37456;DHT22;23316;50.718;7.328;2023-05-19T04:47:06;12.20;48.90
37456;DHT22;23316;50.718;7.328;2023-05-19T04:49:33;12.20;48.90
37456;DHT22;23316;50.718;7.328;2023-05-19T04:52:05;12.20;48.90
37456;DHT22;23316;50.718;7.328;2023-05-19T04:54:33;12.20;48.90
37456;DHT22;23316;50.718;7.328;2023-05-19T04:57:00;12.20;48.90
37456;DHT22;23316;50.718;7.328;2023-05-19T04:59:29;12.20;48.90
37456;DHT22;23316;50.718;7.328;2023-05-19T05:01:56;12.20;49.10
37456;DHT22;23316;50.718;7.328;2023-05-19T05:04:24;12.20;49.10
37456;DHT22;23316;50.718;7.328;2023-05-19T05:06:51;12.20;49.10
37456;DHT22;23316;50.718;7.328;2023-05-19T05:09:18;12.20;49.20
37456;DHT22;23316;50.718;7.328;2023-05-19T05:11:46;12.30;49.20
37456;DHT22;23316;50.718;7.328;2023-05-19T05:14:14;12.20;49.30
37456;DHT22;23316;50.718;7.328;2023-05-19T05:16:43;12.30;49.30
37456;DHT22;23316;50.718;7.328;2023-05-19T05:19:11;12.20;49.20
37456;DHT22;23316;50.718;7.328;2023-05-19T05:21:40;12.20;49.20
37456;DHT22;23316;50.718;7.328;2023-05-19T05:24:10;12.30;49.40
37456;DHT22;23316;50.718;7.328;2023-05-19T05:26:38;12.30;49.40
37456;DHT22;23316;50.718;7.328;2023-05-19T05:29:06;12.30;49.60
37456;DHT22;23316;50.718;7.328;2023-05-19T05:31:33;12.30;49.60
37456;DHT22;23316;50.718;7.328;2023-05-19T05:34:03;12.30;49.70
37456;DHT22;23316;50.718;7.328;2023-05-19T05:36:30;12.40;49.80
37456;DHT22;23316;50.718;7.328;2023-05-19T05:38:59;12.40;49.70
37456;DHT22;23316;50.718;7.328;2023-05-19T05:41:27;12.40;49.80
37456;DHT22;23316;50.718;7.328;2023-05-19T05:44:00;12.50;49.80
37456;DHT22;23316;50.718;7.328;2023-05-19T05:46:27;12.50;49.70
37456;DHT22;23316;50.718;7.328;2023-05-19T05:48:55;12.50;49.60
37456;DHT22;23316;50.718;7.328;2023-05-19T05:51:24;12.60;49.60
37456;DHT22;23316;50.718;7.328;2023-05-19T05:53:53;12.60;49.60
37456;DHT22;23316;50.718;7.328;2023-05-19T05:56:21;12.70;49.80
37456;DHT22;23316;50.718;7.328;2023-05-19T05:58:48;12.70;49.80
37456;DHT22;23316;50.718;7.328;2023-05-19T06:01:16;12.80;49.90
37456;DHT22;23316;50.718;7.328;2023-05-19T06:03:44;12.80;49.80
37456;DHT22;23316;50.718;7.328;2023-05-19T06:06:11;12.90;49.70
37456;DHT22;23316;50.718;7.328;2023-05-19T06:08:40;12.90;49.70
37456;DHT22;23316;50.718;7.328;2023-05-19T06:11:07;13.00;49.80
37456;DHT22;23316;50.718;7.328;2023-05-19T06:13:35;13.00;49.70
37456;DHT22;23316;50.718;7.328;2023-05-19T06:16:03;13.10;49.80
37456;DHT22;23316;50.718;7.328;2023-05-19T06:18:31;13.10;49.70
37456;DHT22;23316;50.718;7.328;2023-05-19T06:20:58;13.20;49.80
37456;DHT22;23316;50.718;7.328;2023-05-19T06:23:26;13.20;49.80
37456;DHT22;23316;50.718;7.328;2023-05-19T06:25:55;13.30;49.70
37456;DHT22;23316;50.718;7.328;2023-05-19T06:28:23;13.40;49.70
37456;DHT22;23316;50.718;7.328;2023-05-19T06:30:51;13.40;49.70
37456;DHT22;23316;50.718;7.328;2023-05-19T06:33:19;13.50;49.70
37456;DHT22;23316;50.718;7.328;2023-05-19T06:35:48;13.60;49.70
37456;DHT22;23316;50.718;7.328;2023-05-19T06:38:15;13.60;49.70
37456;DHT22;23316;50.718;7.328;2023-05-19T06:40:43;13.70;49.70
37456;DHT22;23316;50.718;7.328;2023-05-19T06:43:12;13.80;49.70
37456;DHT22;23316;50.718;7.328;2023-05-19T06:45:39;13.80;49.50
37456;DHT22;23316;50.718;7.328;2023-05-19T06:48:17;13.80;49.50
37456;DHT22;23316;50.718;7.328;2023-05-19T06:50:45;13.80;49.70
37456;DHT22;23316;50.718;7.328;2023-05-19T06:53:12;13.90;49.80
37456;DHT22;23316;50.718;7.328;2023-05-19T06:55:40;13.90;49.80
37456;DHT22;23316;50.718;7.328;2023-05-19T06:58:08;13.90;49.90
37456;DHT22;23316;50.718;7.328;2023-05-19T07:00:37;14.00;50.00
37456;DHT22;23316;50.718;7.328;2023-05-19T07:03:04;14.00;49.90
37456;DHT22;23316;50.718;7.328;2023-05-19T07:05:35;14.10;50.00
37456;DHT22;23316;50.718;7.328;2023-05-19T07:08:07;14.20;50.20
37456;DHT22;23316;50.718;7.328;2023-05-19T07:10:35;14.20;50.30
37456;DHT22;23316;50.718;7.328;2023-05-19T07:13:03;14.30;50.30
37456;DHT22;23316;50.718;7.328;2023-05-19T07:15:31;14.30;50.30
37456;DHT22;23316;50.718;7.328;2023-05-19T07:18:00;14.40;49.80
37456;DHT22;23316;50.718;7.328;2023-05-19T07:20:28;14.50;49.80
37456;DHT22;23316;50.718;7.328;2023-05-19T07:22:55;14.60;49.80
37456;DHT22;23316;50.718;7.328;2023-05-19T07:25:23;14.60;49.80
37456;DHT22;23316;50.718;7.328;2023-05-19T07:27:52;14.70;49.50
37456;DHT22;23316;50.718;7.328;2023-05-19T07:30:20;14.70;49.10
37456;DHT22;23316;50.718;7.328;2023-05-19T07:32:48;14.70;48.70
37456;DHT22;23316;50.718;7.328;2023-05-19T07:35:17;14.70;48.60
37456;DHT22;23316;50.718;7.328;2023-05-19T07:37:45;14.80;49.10
37456;DHT22;23316;50.718;7.328;2023-05-19T07:40:12;14.80;50.00
37456;DHT22;23316;50.718;7.328;2023-05-19T07:42:40;14.80;49.90
37456;DHT22;23316;50.718;7.328;2023-05-19T07:45:08;14.90;49.60
37456;DHT22;23316;50.718;7.328;2023-05-19T07:47:36;15.00;48.80
37456;DHT22;23316;50.718;7.328;2023-05-19T07:50:04;15.00;48.70
37456;DHT22;23316;50.718;7.328;2023-05-19T07:52:32;15.10;49.00
37456;DHT22;23316;50.718;7.328;2023-05-19T07:55:00;15.10;48.80
37456;DHT22;23316;50.718;7.328;2023-05-19T07:57:28;15.20;49.00
37456;DHT22;23316;50.718;7.328;2023-05-19T07:59:55;15.30;48.90
37456;DHT22;23316;50.718;7.328;2023-05-19T08:02:23;15.30;48.40
37456;DHT22;23316;50.718;7.328;2023-05-19T08:04:50;15.40;48.00
37456;DHT22;23316;50.718;7.328;2023-05-19T08:07:19;15.40;47.80
37456;DHT22;23316;50.718;7.328;2023-05-19T08:09:48;15.40;47.90
37456;DHT22;23316;50.718;7.328;2023-05-19T08:12:15;15.60;48.20
37456;DHT22;23316;50.718;7.328;2023-05-19T08:14:43;15.60;48.00
37456;DHT22;23316;50.718;7.328;2023-05-19T08:17:11;15.70;48.10
37456;DHT22;23316;50.718;7.328;2023-05-19T08:19:38;15.70;47.90
37456;DHT22;23316;50.718;7.328;2023-05-19T08:22:06;15.80;47.30
37456;DHT22;23316;50.718;7.328;2023-05-19T08:24:33;15.90;47.40
37456;DHT22;23316;50.718;7.328;2023-05-19T08:27:02;15.90;47.40
37456;DHT22;23316;50.718;7.328;2023-05-19T08:29:30;16.00;47.00
37456;DHT22;23316;50.718;7.328;2023-05-19T08:31:58;16.00;46.50
37456;DHT22;23316;50.718;7.328;2023-05-19T08:34:26;16.10;46.70
37456;DHT22;23316;50.718;7.328;2023-05-19T08:36:54;16.20;46.90
37456;DHT22;23316;50.718;7.328;2023-05-19T08:39:25;16.30;47.00
37456;DHT22;23316;50.718;7.328;2023-05-19T08:41:59;16.30;46.80
37456;DHT22;23316;50.718;7.328;2023-05-19T08:44:29;16.40;46.10
37456;DHT22;23316;50.718;7.328;2023-05-19T08:47:00;16.40;45.60
37456;DHT22;23316;50.718;7.328;2023-05-19T08:49:32;16.50;46.20
37456;DHT22;23316;50.718;7.328;2023-05-19T08:52:04;16.60;45.60
37456;DHT22;23316;50.718;7.328;2023-05-19T08:54:40;16.70;46.20
37456;DHT22;23316;50.718;7.328;2023-05-19T08:57:23;16.80;45.80
37456;DHT22;23316;50.718;7.328;2023-05-19T08:59:53;16.90;45.80
37456;DHT22;23316;50.718;7.328;2023-05-19T09:02:21;17.00;46.00
37456;DHT22;23316;50.718;7.328;2023-05-19T09:04:49;17.10;46.60
37456;DHT22;23316;50.718;7.328;2023-05-19T09:07:17;17.10;45.40
37456;DHT22;23316;50.718;7.328;2023-05-19T09:09:46;17.20;45.40
37456;DHT22;23316;50.718;7.328;2023-05-19T09:12:13;17.30;45.40
37456;DHT22;23316;50.718;7.328;2023-05-19T09:14:41;17.40;45.20
37456;DHT22;23316;50.718;7.328;2023-05-19T09:17:10;17.40;45.50
37456;DHT22;23316;50.718;7.328;2023-05-19T09:19:44;17.50;45.30
37456;DHT22;23316;50.718;7.328;2023-05-19T09:22:28;17.50;44.80
37456;DHT22;23316;50.718;7.328;2023-05-19T09:25:27;17.60;44.40
37456;DHT22;23316;50.718;7.328;2023-05-19T09:28:11;17.70;44.40
37456;DHT22;23316;50.718;7.328;2023-05-19T09:30:40;17.70;44.70
37456;DHT22;23316;50.718;7.328;2023-05-19T09:33:09;17.80;44.70
37456;DHT22;23316;50.718;7.328;2023-05-19T09:35:36;17.80;44.60
37456;DHT22;23316;50.718;7.328;2023-05-19T09:38:04;17.90;44.40
37456;DHT22;23316;50.718;7.328;2023-05-19T09:40:32;17.90;44.00
37456;DHT22;23316;50.718;7.328;2023-05-19T09:43:04;18.00;43.70
37456;DHT22;23316;50.718;7.328;2023-05-19T09:45:33;18.00;43.80
37456;DHT22;23316;50.718;7.328;2023-05-19T09:48:03;18.10;43.60
37456;DHT22;23316;50.718;7.328;2023-05-19T09:50:32;18.10;43.80
37456;DHT22;23316;50.718;7.328;2023-05-19T09:53:00;18.20;43.20
37456;DHT22;23316;50.718;7.328;2023-05-19T09:55:28;18.20;42.90
37456;DHT22;23316;50.718;7.328;2023-05-19T09:57:57;18.30;42.60
37456;DHT22;23316;50.718;7.328;2023-05-19T10:00:30;18.30;42.40
37456;DHT22;23316;50.718;7.328;2023-05-19T10:02:59;18.30;42.50
37456;DHT22;23316;50.718;7.328;2023-05-19T10:05:27;18.40;42.20
37456;DHT22;23316;50.718;7.328;2023-05-19T10:07:57;18.40;41.90
37456;DHT22;23316;50.718;7.328;2023-05-19T10:10:26;18.40;42.00
37456;DHT22;23316;50.718;7.328;2023-05-19T10:12:55;18.50;41.90
37456;DHT22;23316;50.718;7.328;2023-05-19T10:15:22;18.50;42.00
37456;DHT22;23316;50.718;7.328;2023-05-19T10:17:51;18.50;41.40
37456;DHT22;23316;50.718;7.328;2023-05-19T10:20:19;18.50;41.60
37456;DHT22;23316;50.718;7.328;2023-05-19T10:22:46;18.60;41.40
37456;DHT22;23316;50.718;7.328;2023-05-19T10:25:16;18.60;41.60
37456;DHT22;23316;50.718;7.328;2023-05-19T10:27:50;18.70;41.80
37456;DHT22;23316;50.718;7.328;2023-05-19T10:30:24;18.80;42.00
37456;DHT22;23316;50.718;7.328;2023-05-19T10:32:53;18.80;41.90
37456;DHT22;23316;50.718;7.328;2023-05-19T10:38:31;18.90;41.80
37456;DHT22;23316;50.718;7.328;2023-05-19T10:41:03;18.90;41.60
37456;DHT22;23316;50.718;7.328;2023-05-19T10:43:38;19.00;41.10
37456;DHT22;23316;50.718;7.328;2023-05-19T10:46:10;19.10;41.30
37456;DHT22;23316;50.718;7.328;2023-05-19T10:48:43;19.10;41.00
37456;DHT22;23316;50.718;7.328;2023-05-19T10:51:10;19.10;40.80
37456;DHT22;23316;50.718;7.328;2023-05-19T10:53:40;19.20;40.80
37456;DHT22;23316;50.718;7.328;2023-05-19T10:56:27;19.20;40.50
37456;DHT22;23316;50.718;7.328;2023-05-19T10:58:56;19.20;40.60
37456;DHT22;23316;50.718;7.328;2023-05-19T11:01:30;19.30;41.10
37456;DHT22;23316;50.718;7.328;2023-05-19T11:04:04;19.30;40.90
37456;DHT22;23316;50.718;7.328;2023-05-19T11:06:32;19.40;40.60
37456;DHT22;23316;50.718;7.328;2023-05-19T11:09:08;19.40;40.00
37456;DHT22;23316;50.718;7.328;2023-05-19T11:11:45;19.40;39.50
37456;DHT22;23316;50.718;7.328;2023-05-19T11:14:15;19.50;39.60
37456;DHT22;23316;50.718;7.328;2023-05-19T11:16:46;19.50;39.70
37456;DHT22;23316;50.718;7.328;2023-05-19T11:19:17;19.50;39.80
37456;DHT22;23316;50.718;7.328;2023-05-19T11:21:49;19.60;39.10
37456;DHT22;23316;50.718;7.328;2023-05-19T11:24:35;19.50;38.90
37456;DHT22;23316;50.718;7.328;2023-05-19T11:27:26;19.60;39.40
37456;DHT22;23316;50.718;7.328;2023-05-19T11:29:55;19.60;39.50
37456;DHT22;23316;50.718;7.328;2023-05-19T11:32:27;19.70;39.00
37456;DHT22;23316;50.718;7.328;2023-05-19T11:34:55;19.70;38.00
37456;DHT22;23316;50.718;7.328;2023-05-19T11:37:24;19.70;38.60
37456;DHT22;23316;50.718;7.328;2023-05-19T11:39:52;19.80;38.90
37456;DHT22;23316;50.718;7.328;2023-05-19T11:42:19;19.80;38.90
37456;DHT22;23316;50.718;7.328;2023-05-19T11:44:48;19.80;38.70
37456;DHT22;23316;50.718;7.328;2023-05-19T11:47:16;19.80;38.40
37456;DHT22;23316;50.718;7.328;2023-05-19T11:49:44;19.90;38.30
37456;DHT22;23316;50.718;7.328;2023-05-19T11:52:11;19.90;38.10
37456;DHT22;23316;50.718;7.328;2023-05-19T11:54:39;19.90;37.30
37456;DHT22;23316;50.718;7.328;2023-05-19T11:57:08;20.00;37.80
37456;DHT22;23316;50.718;7.328;2023-05-19T11:59:36;20.00;37.90
37456;DHT22;23316;50.718;7.328;2023-05-19T12:02:16;20.00;37.50
37456;DHT22;23316;50.718;7.328;2023-05-19T12:04:44;20.00;37.00
37456;DHT22;23316;50.718;7.328;2023-05-19T12:07:11;20.00;36.90
37456;DHT22;23316;50.718;7.328;2023-05-19T12:09:40;20.10;36.80
37456;DHT22;23316;50.718;7.328;2023-05-19T12:12:07;20.10;37.20
37456;DHT22;23316;50.718;7.328;2023-05-19T12:14:34;20.10;37.10
37456;DHT22;23316;50.718;7.328;2023-05-19T12:17:10;20.10;37.20
37456;DHT22;23316;50.718;7.328;2023-05-19T12:19:40;20.20;37.30
37456;DHT22;23316;50.718;7.328;2023-05-19T12:22:09;20.20;36.90
37456;DHT22;23316;50.718;7.328;2023-05-19T12:24:38;20.20;36.60
37456;DHT22;23316;50.718;7.328;2023-05-19T12:27:10;20.20;36.10
37456;DHT22;23316;50.718;7.328;2023-05-19T12:29:39;20.30;36.10
37456;DHT22;23316;50.718;7.328;2023-05-19T12:32:15;20.30;36.00
37456;DHT22;23316;50.718;7.328;2023-05-19T12:34:44;20.30;36.20
37456;DHT22;23316;50.718;7.328;2023-05-19T12:37:19;20.40;36.20
37456;DHT22;23316;50.718;7.328;2023-05-19T12:40:02;20.40;35.60
37456;DHT22;23316;50.718;7.328;2023-05-19T12:42:36;20.40;35.70
37456;DHT22;23316;50.718;7.328;2023-05-19T12:45:09;20.50;35.70
37456;DHT22;23316;50.718;7.328;2023-05-19T12:50:12;20.50;35.90
37456;DHT22;23316;50.718;7.328;2023-05-19T12:52:41;20.60;35.60
37456;DHT22;23316;50.718;7.328;2023-05-19T12:55:09;20.60;35.60
37456;DHT22;23316;50.718;7.328;2023-05-19T12:57:37;20.60;35.50
37456;DHT22;23316;50.718;7.328;2023-05-19T13:00:12;20.60;35.20
37456;DHT22;23316;50.718;7.328;2023-05-19T13:02:54;20.60;34.80
37456;DHT22;23316;50.718;7.328;2023-05-19T13:05:23;20.60;35.10
37456;DHT22;23316;50.718;7.328;2023-05-19T13:07:55;20.60;35.40
37456;DHT22;23316;50.718;7.328;2023-05-19T13:10:23;20.70;35.50
37456;DHT22;23316;50.718;7.328;2023-05-19T13:12:54;20.70;35.60
37456;DHT22;23316;50.718;7.328;2023-05-19T13:15:23;20.70;35.50
37456;DHT22;23316;50.718;7.328;2023-05-19T13:17:51;20.70;35.10
37456;DHT22;23316;50.718;7.328;2023-05-19T13:20:19;20.70;35.00
37456;DHT22;23316;50.718;7.328;2023-05-19T13:22:48;20.70;35.20
37456;DHT22;23316;50.718;7.328;2023-05-19T13:25:16;20.80;34.90
37456;DHT22;23316;50.718;7.328;2023-05-19T13:27:44;20.80;34.70
37456;DHT22;23316;50.718;7.328;2023-05-19T13:30:13;20.80;34.90
37456;DHT22;23316;50.718;7.328;2023-05-19T13:32:41;20.80;34.90
37456;DHT22;23316;50.718;7.328;2023-05-19T13:35:09;20.80;34.90
37456;DHT22;23316;50.718;7.328;2023-05-19T13:37:37;20.80;35.00
37456;DHT22;23316;50.718;7.328;2023-05-19T13:40:07;20.90;35.00
37456;DHT22;23316;50.718;7.328;2023-05-19T13:42:35;20.90;34.90
37456;DHT22;23316;50.718;7.328;2023-05-19T13:45:03;20.90;35.10
37456;DHT22;23316;50.718;7.328;2023-05-19T13:47:30;21.00;34.60
37456;DHT22;23316;50.718;7.328;2023-05-19T13:49:57;21.00;35.10
37456;DHT22;23316;50.718;7.328;2023-05-19T13:52:25;21.00;34.40
37456;DHT22;23316;50.718;7.328;2023-05-19T13:54:52;21.10;34.50
37456;DHT22;23316;50.718;7.328;2023-05-19T13:57:22;21.00;35.00
37456;DHT22;23316;50.718;7.328;2023-05-19T13:59:50;21.10;34.30
37456;DHT22;23316;50.718;7.328;2023-05-19T14:02:17;21.10;34.40
37456;DHT22;23316;50.718;7.328;2023-05-19T14:04:45;21.10;34.10
37456;DHT22;23316;50.718;7.328;2023-05-19T14:07:13;21.10;33.90
37456;DHT22;23316;50.718;7.328;2023-05-19T14:09:41;21.20;33.80
37456;DHT22;23316;50.718;7.328;2023-05-19T14:12:09;21.20;33.80
37456;DHT22;23316;50.718;7.328;2023-05-19T14:14:38;21.20;34.00
37456;DHT22;23316;50.718;7.328;2023-05-19T14:17:05;21.20;34.00
37456;DHT22;23316;50.718;7.328;2023-05-19T14:19:32;21.20;33.80
37456;DHT22;23316;50.718;7.328;2023-05-19T14:22:00;21.20;33.50
37456;DHT22;23316;50.718;7.328;2023-05-19T14:24:27;21.30;34.00
37456;DHT22;23316;50.718;7.328;2023-05-19T14:26:54;21.30;33.70
37456;DHT22;23316;50.718;7.328;2023-05-19T14:29:21;21.30;33.70
37456;DHT22;23316;50.718;7.328;2023-05-19T14:31:50;21.30;34.10
37456;DHT22;23316;50.718;7.328;2023-05-19T14:34:17;21.30;34.00
37456;DHT22;23316;50.718;7.328;2023-05-19T14:36:46;21.40;33.80
37456;DHT22;23316;50.718;7.328;2023-05-19T14:39:13;21.40;33.50
37456;DHT22;23316;50.718;7.328;2023-05-19T14:41:40;21.40;33.70
37456;DHT22;23316;50.718;7.328;2023-05-19T14:44:07;21.40;33.90
37456;DHT22;23316;50.718;7.328;2023-05-19T14:46:35;21.40;33.80
37456;DHT22;23316;50.718;7.328;2023-05-19T14:49:03;21.50;33.60
37456;DHT22;23316;50.718;7.328;2023-05-19T14:51:31;21.50;33.30
37456;DHT22;23316;50.718;7.328;2023-05-19T14:53:58;21.60;33.40
37456;DHT22;23316;50.718;7.328;2023-05-19T14:56:27;21.60;33.40
37456;DHT22;23316;50.718;7.328;2023-05-19T14:58:54;21.70;32.80
37456;DHT22;23316;50.718;7.328;2023-05-19T15:01:21;21.70;32.70
37456;DHT22;23316;50.718;7.328;2023-05-19T15:03:48;21.70;32.90
37456;DHT22;23316;50.718;7.328;2023-05-19T15:06:17;21.80;33.50
37456;DHT22;23316;50.718;7.328;2023-05-19T15:08:44;21.80;33.20
37456;DHT22;23316;50.718;7.328;2023-05-19T15:11:11;21.90;33.30
37456;DHT22;23316;50.718;7.328;2023-05-19T15:13:38;21.90;33.10
37456;DHT22;23316;50.718;7.328;2023-05-19T15:16:06;21.90;32.70
37456;DHT22;23316;50.718;7.328;2023-05-19T15:18:35;22.00;32.50
37456;DHT22;23316;50.718;7.328;2023-05-19T15:21:02;22.00;32.80
37456;DHT22;23316;50.718;7.328;2023-05-19T15:23:31;22.10;32.60
37456;DHT22;23316;50.718;7.328;2023-05-19T15:25:58;22.10;32.80
37456;DHT22;23316;50.718;7.328;2023-05-19T15:28:26;22.10;33.00
37456;DHT22;23316;50.718;7.328;2023-05-19T15:30:53;22.10;32.90
37456;DHT22;23316;50.718;7.328;2023-05-19T15:33:20;22.20;32.90
37456;DHT22;23316;50.718;7.328;2023-05-19T15:35:47;22.10;33.10
37456;DHT22;23316;50.718;7.328;2023-05-19T15:38:17;22.20;33.40
37456;DHT22;23316;50.718;7.328;2023-05-19T15:40:46;22.20;33.60
37456;DHT22;23316;50.718;7.328;2023-05-19T15:43:13;22.30;33.50
37456;DHT22;23316;50.718;7.328;2023-05-19T15:45:40;22.30;33.50
37456;DHT22;23316;50.718;7.328;2023-05-19T15:48:07;22.30;33.50
37456;DHT22;23316;50.718;7.328;2023-05-19T15:50:35;22.30;33.70
37456;DHT22;23316;50.718;7.328;2023-05-19T15:53:02;22.30;33.40
37456;DHT22;23316;50.718;7.328;2023-05-19T15:55:31;22.30;33.40
37456;DHT22;23316;50.718;7.328;2023-05-19T15:58:00;22.30;33.30